createdAt,value
2019-01-24T00:02:02.801Z,25.62
2019-01-24T00:08:39.738Z,22.30
2019-01-24T00:15:07.391Z,27.50
2019-01-24T00:21:34.040Z,22.17
2019-01-24T00:28:05.269Z,23.85
2019-01-24T00:38:17.994Z,34.90
2019-01-24T00:44:57.288Z,27.73
2019-01-24T00:51:25.129Z,23.80
2019-01-24T00:57:52.745Z,25.77
2019-01-24T01:04:31.699Z,22.27
2019-01-24T01:10:58.370Z,26.07
2019-01-24T01:17:28.611Z,19.73
2019-01-24T01:24:07.561Z,24.67
2019-01-24T01:30:37.218Z,27.82
2019-01-24T01:40:18.046Z,26.23
2019-01-24T01:46:49.042Z,30.12
2019-01-24T01:53:14.656Z,25.80
2019-01-24T01:59:54.430Z,26.07
2019-01-24T02:06:20.282Z,21.48
2019-01-24T02:12:46.463Z,20.43
2019-01-24T02:19:29.453Z,26.48
2019-01-24T02:25:57.082Z,22.30
2019-01-24T02:32:24.982Z,26.70
2019-01-24T02:41:51.740Z,23.10
2019-01-24T02:48:26.648Z,21.80
2019-01-24T02:54:52.471Z,22.13
2019-01-24T03:01:18.290Z,21.73
2019-01-24T03:07:45.929Z,22.82
2019-01-24T03:14:14.981Z,27.45
2019-01-24T03:20:52.780Z,22.35
2019-01-24T03:27:25.592Z,26.77
2019-01-24T03:33:52.637Z,22.98
2019-01-24T03:43:42.101Z,23.83
2019-01-24T03:50:08.307Z,23.65
2019-01-24T03:56:36.142Z,24.32
2019-01-24T04:03:05.791Z,19.85
2019-01-24T04:09:32.828Z,19.23
2019-01-24T04:16:12.646Z,23.65
2019-01-24T04:22:37.598Z,21.62
2019-01-24T04:29:07.459Z,24.37
2019-01-24T04:35:48.215Z,30.25
2019-01-24T04:45:24.944Z,25.82
2019-01-24T04:52:01.854Z,55.98
2019-01-24T04:58:28.899Z,27.52
2019-01-24T05:04:56.736Z,22.93
2019-01-24T05:11:33.329Z,24.20
2019-01-24T05:18:01.509Z,19.70
2019-01-24T05:24:27.074Z,21.42
2019-01-24T05:31:08.124Z,36.77
2019-01-24T05:37:38.027Z,23.77
2019-01-24T05:43:27.424Z,26.87
2019-01-24T05:49:41.322Z,26.12
2019-01-24T05:56:21.990Z,21.55
2019-01-24T06:02:48.114Z,18.60
2019-01-24T06:09:17.373Z,20.23
2019-01-24T06:15:44.451Z,20.05
2019-01-24T06:22:24.762Z,21.10
2019-01-24T06:28:51.590Z,31.35
2019-01-24T06:35:17.408Z,22.05
2019-01-24T06:41:56.113Z,17.20
2019-01-24T06:48:09.675Z,22.62
2019-01-24T06:54:40.089Z,31.15
2019-01-24T07:01:03.721Z,25.40
2019-01-24T07:07:44.689Z,31.25
2019-01-24T07:14:12.335Z,29.60
2019-01-24T07:20:36.131Z,25.80
2019-01-24T07:27:17.952Z,28.32
2019-01-24T07:33:48.168Z,23.55
2019-01-24T07:40:19.043Z,21.48
2019-01-24T07:49:50.474Z,26.55
2019-01-24T07:56:16.325Z,26.27
2019-01-24T08:02:56.101Z,32.30
2019-01-24T08:09:11.188Z,30.62
2019-01-24T08:15:36.742Z,25.80
2019-01-24T08:22:15.965Z,25.80
2019-01-24T08:28:41.548Z,28.23
2019-01-24T08:35:11.641Z,25.00
2019-01-24T08:41:37.346Z,37.98
2019-01-24T08:51:54.213Z,25.62
2019-01-24T08:58:33.521Z,32.45
2019-01-24T09:04:59.342Z,29.15
2019-01-24T09:11:32.759Z,22.27
2019-01-24T09:18:12.839Z,34.88
2019-01-24T09:24:43.061Z,27.82
2019-01-24T09:31:08.638Z,28.15
2019-01-24T09:37:54.553Z,31.80
2019-01-24T09:43:45.998Z,32.67
2019-01-24T09:54:03.275Z,28.12
2019-01-24T10:00:38.402Z,26.37
2019-01-24T10:07:06.042Z,25.08
2019-01-24T10:13:47.855Z,27.02
2019-01-24T10:20:16.059Z,22.37
2019-01-24T10:26:43.905Z,38.08
2019-01-24T10:33:27.531Z,25.95
2019-01-24T10:39:55.742Z,29.63
2019-01-24T10:45:52.269Z,34.48
2019-01-24T10:55:54.232Z,30.68
2019-01-24T11:02:20.085Z,31.80
2019-01-24T11:09:01.019Z,29.65
2019-01-24T11:15:26.608Z,35.30
2019-01-24T11:21:52.662Z,32.73
2019-01-24T11:28:31.415Z,29.20
2019-01-24T11:34:58.083Z,24.63
2019-01-24T11:41:24.260Z,27.93
2019-01-24T11:47:56.143Z,26.20
2019-01-24T11:57:24.769Z,27.77
2019-01-24T12:04:03.721Z,21.17
2019-01-24T12:10:34.184Z,29.57
2019-01-24T12:17:03.308Z,22.45
2019-01-24T12:23:41.382Z,24.07
2019-01-24T12:30:11.242Z,29.35
2019-01-24T12:36:41.757Z,21.05
2019-01-24T12:43:09.951Z,25.70
2019-01-24T12:49:48.903Z,32.23
2019-01-24T12:59:55.934Z,31.27
2019-01-24T13:06:21.733Z,33.28
2019-01-24T13:12:47.343Z,26.37
2019-01-24T13:19:24.483Z,28.23
2019-01-24T13:25:50.102Z,23.77
2019-01-24T13:32:16.768Z,24.18
2019-01-24T13:38:42.952Z,30.50
2019-01-24T13:44:44.301Z,27.67
2019-01-24T13:51:14.246Z,28.15
2019-01-24T14:01:18.825Z,29.48
2019-01-24T14:07:48.232Z,26.93
2019-01-24T14:14:32.233Z,27.27
2019-01-24T14:20:57.674Z,28.35
2019-01-24T14:27:25.891Z,29.90
2019-01-24T14:33:46.516Z,24.20
2019-01-24T14:40:27.631Z,24.23
2019-01-24T14:47:03.587Z,36.08
2019-01-24T14:53:29.371Z,25.48
2019-01-24T15:03:31.994Z,31.17
2019-01-24T15:10:19.371Z,27.00
2019-01-24T15:16:47.850Z,27.40
2019-01-24T15:23:15.747Z,31.35
2019-01-24T15:29:58.040Z,32.17
2019-01-24T15:36:01.305Z,39.05
2019-01-24T15:42:30.431Z,36.08
2019-01-24T15:48:57.318Z,34.13
2019-01-24T15:55:36.272Z,40.78
2019-01-24T16:05:52.467Z,35.68
2019-01-24T16:12:29.026Z,34.45
2019-01-24T16:19:01.831Z,42.48
2019-01-24T16:25:40.787Z,37.95
2019-01-24T16:32:22.153Z,33.90
2019-01-24T16:38:56.176Z,35.43
2019-01-24T16:45:43.054Z,33.00
2019-01-24T16:52:12.526Z,36.93
2019-01-24T16:58:38.367Z,38.45
2019-01-24T17:08:40.693Z,42.90
2019-01-24T17:15:07.524Z,35.90
2019-01-24T17:21:46.133Z,37.95
2019-01-24T17:28:12.291Z,45.25
2019-01-24T17:34:54.276Z,38.78
2019-01-24T17:41:35.497Z,44.50
2019-01-24T17:48:01.879Z,36.40
2019-01-24T17:54:25.874Z,35.52
2019-01-24T18:00:54.395Z,35.38
2019-01-24T18:10:24.159Z,36.03
2019-01-24T18:17:06.345Z,44.00
2019-01-24T18:23:32.162Z,36.85
2019-01-24T18:29:59.810Z,37.85
2019-01-24T18:36:36.932Z,43.38
2019-01-24T18:43:06.587Z,36.25
2019-01-24T18:49:33.256Z,39.23
2019-01-24T18:56:01.462Z,36.88
2019-01-24T19:02:40.110Z,40.98
2019-01-24T19:12:19.148Z,39.73
2019-01-24T19:18:47.608Z,35.70
2019-01-24T19:25:18.784Z,41.70
2019-01-24T19:31:47.498Z,34.73
2019-01-24T19:38:26.451Z,34.18
2019-01-24T19:44:57.537Z,35.40
2019-01-24T19:48:27.618Z,37.03
2019-01-24T19:54:41.319Z,34.65
2019-01-24T20:01:06.761Z,30.20
2019-01-24T20:07:46.082Z,42.62
2019-01-24T20:13:36.560Z,44.73
2019-01-24T20:20:00.262Z,36.70
2019-01-24T20:26:27.179Z,40.03
2019-01-24T20:33:08.149Z,40.12
2019-01-24T20:39:33.970Z,43.68
2019-01-24T20:46:03.614Z,37.65
2019-01-24T20:55:40.342Z,33.70
2019-01-24T21:02:07.024Z,36.77
2019-01-24T21:08:45.323Z,34.85
2019-01-24T21:15:12.143Z,44.30
2019-01-24T21:21:37.958Z,34.35
2019-01-24T21:28:16.910Z,43.25
2019-01-24T21:34:55.857Z,34.45
2019-01-24T21:40:58.446Z,39.40
2019-01-24T21:47:37.041Z,39.00
2019-01-24T21:57:52.269Z,38.90
2019-01-24T22:04:16.073Z,42.62
2019-01-24T22:10:53.218Z,40.55
2019-01-24T22:17:34.805Z,40.00
2019-01-24T22:24:15.812Z,42.60
2019-01-24T22:30:58.060Z,49.30
2019-01-24T22:37:38.108Z,36.17
2019-01-24T22:44:17.056Z,43.90
2019-01-24T22:50:59.040Z,50.85
2019-01-24T23:01:42.411Z,32.60
2019-01-24T23:08:12.041Z,41.98
2019-01-24T23:14:37.893Z,41.33
2019-01-24T23:21:04.564Z,43.23
2019-01-24T23:27:30.738Z,44.25
2019-01-24T23:33:54.534Z,44.88
2019-01-24T23:40:20.360Z,41.20
2019-01-24T23:46:45.424Z,43.15
2019-01-24T23:53:13.807Z,39.33
